createdAt,value
2018-08-20T00:03:17.672Z,13.27
2018-08-20T00:07:26.014Z,13.43
2018-08-20T00:11:34.341Z,11.87
2018-08-20T00:15:42.675Z,12.90
2018-08-20T00:19:50.972Z,11.17
2018-08-20T00:23:59.252Z,10.90
2018-08-20T00:28:07.670Z,12.57
2018-08-20T00:32:15.994Z,13.30
2018-08-20T00:36:24.298Z,12.90
2018-08-20T00:40:32.598Z,12.60
2018-08-20T00:44:40.889Z,13.50
2018-08-20T00:48:49.218Z,13.87
2018-08-20T00:52:57.617Z,11.57
2018-08-20T00:57:05.943Z,12.80
2018-08-20T01:01:14.300Z,12.40
2018-08-20T01:05:22.640Z,14.47
2018-08-20T01:09:31.001Z,11.40
2018-08-20T01:13:39.283Z,12.00
2018-08-20T01:17:47.616Z,12.60
2018-08-20T01:21:56.028Z,10.60
2018-08-20T01:26:04.340Z,11.30
2018-08-20T01:30:12.682Z,11.70
2018-08-20T01:34:21.046Z,11.67
2018-08-20T01:38:29.360Z,10.90
2018-08-20T01:42:37.689Z,13.33
2018-08-20T01:46:46.042Z,11.40
2018-08-20T01:50:54.423Z,10.77
2018-08-20T01:55:02.716Z,12.20
2018-08-20T01:59:11.048Z,11.50
2018-08-20T02:03:19.362Z,12.57
2018-08-20T02:07:27.625Z,12.97
2018-08-20T02:11:35.922Z,13.80
2018-08-20T02:15:44.242Z,13.67
2018-08-20T02:19:52.563Z,12.83
2018-08-20T02:24:00.873Z,13.67
2018-08-20T02:28:09.214Z,13.67
2018-08-20T02:32:17.505Z,13.68
2018-08-20T02:36:25.850Z,13.10
2018-08-20T02:40:34.169Z,14.07
2018-08-20T02:44:42.481Z,15.57
2018-08-20T02:48:57.278Z,14.60
2018-08-20T02:53:05.909Z,15.80
2018-08-20T02:57:14.211Z,12.40
2018-08-20T03:01:22.538Z,12.75
2018-08-20T03:05:31.111Z,13.43
2018-08-20T03:09:39.386Z,13.53
2018-08-20T03:13:47.735Z,13.90
2018-08-20T03:17:56.084Z,14.57
2018-08-20T03:22:04.446Z,13.90
2018-08-20T03:26:12.767Z,15.07
2018-08-20T03:30:21.063Z,16.03
2018-08-20T03:34:29.423Z,13.70
2018-08-20T03:38:37.769Z,14.67
2018-08-20T03:42:46.116Z,16.53
2018-08-20T03:46:54.420Z,16.10
2018-08-20T03:51:02.734Z,14.10
2018-08-20T03:55:11.060Z,15.93
2018-08-20T03:59:32.402Z,16.93
2018-08-20T04:03:40.751Z,14.90
2018-08-20T04:07:49.034Z,16.13
2018-08-20T04:11:57.522Z,16.37
2018-08-20T04:16:05.907Z,14.53
2018-08-20T04:20:13.977Z,15.03
2018-08-20T04:24:23.241Z,14.20
2018-08-20T04:28:31.592Z,14.83
2018-08-20T04:32:39.945Z,14.27
2018-08-20T04:36:48.270Z,11.63
2018-08-20T04:40:56.598Z,12.60
2018-08-20T04:45:06.057Z,11.70
2018-08-20T04:49:14.362Z,12.00
2018-08-20T04:53:22.693Z,12.40
2018-08-20T04:57:31.063Z,11.93
2018-08-20T05:01:39.398Z,12.50
2018-08-20T05:05:47.759Z,12.83
2018-08-20T05:09:56.161Z,11.67
2018-08-20T05:14:04.458Z,12.67
2018-08-20T05:18:12.797Z,12.63
2018-08-20T05:22:21.114Z,12.90
2018-08-20T05:26:29.426Z,12.57
2018-08-20T05:30:37.742Z,12.50
2018-08-20T05:34:46.061Z,12.60
2018-08-20T05:38:54.460Z,11.83
2018-08-20T05:43:02.760Z,13.30
2018-08-20T05:47:11.075Z,13.47
2018-08-20T05:51:19.373Z,14.93
2018-08-20T05:55:27.768Z,14.40
2018-08-20T05:59:36.068Z,14.53
2018-08-20T06:03:44.391Z,14.97
2018-08-20T06:07:53.174Z,15.13
2018-08-20T06:12:01.488Z,13.80
2018-08-20T06:16:09.783Z,14.87
2018-08-20T06:20:18.635Z,14.47
2018-08-20T06:24:27.015Z,14.20
2018-08-20T06:28:35.414Z,13.83
2018-08-20T06:32:43.854Z,15.00
2018-08-20T06:36:52.163Z,13.60
2018-08-20T06:41:00.501Z,15.90
2018-08-20T06:45:13.799Z,16.13
2018-08-20T06:49:22.144Z,14.13
2018-08-20T06:53:30.531Z,15.57
2018-08-20T06:57:38.902Z,14.53
2018-08-20T07:01:47.276Z,15.83
2018-08-20T07:05:55.749Z,15.70
2018-08-20T07:10:04.468Z,15.47
2018-08-20T07:14:12.839Z,17.30
2018-08-20T07:18:21.312Z,16.07
2018-08-20T07:22:29.601Z,21.07
2018-08-20T07:26:37.940Z,15.13
2018-08-20T07:30:46.489Z,18.57
2018-08-20T07:34:55.906Z,17.32
2018-08-20T07:39:04.381Z,18.50
2018-08-20T07:43:12.777Z,18.60
2018-08-20T07:47:21.050Z,17.40
2018-08-20T07:51:29.362Z,17.47
2018-08-20T07:55:37.760Z,19.40
2018-08-20T07:59:46.053Z,20.90
2018-08-20T08:03:54.384Z,21.33
2018-08-20T08:08:02.742Z,19.67
2018-08-20T08:12:11.084Z,23.50
2018-08-20T08:16:22.115Z,23.05
2018-08-20T08:20:30.516Z,23.13
2018-08-20T08:24:38.838Z,23.67
2018-08-20T08:28:47.141Z,21.80
2018-08-20T08:32:55.475Z,27.60
2018-08-20T08:37:03.933Z,25.30
2018-08-20T08:41:12.238Z,23.77
2018-08-20T08:45:20.595Z,22.50
2018-08-20T08:49:28.930Z,25.70
2018-08-20T08:53:37.225Z,27.20
2018-08-20T08:57:45.615Z,26.93
2018-08-20T09:01:53.927Z,25.50
2018-08-20T09:06:03.166Z,24.77
2018-08-20T09:10:11.967Z,26.30
2018-08-20T09:14:20.312Z,26.13
2018-08-20T09:18:28.652Z,25.93
2018-08-20T09:22:37.127Z,28.87
2018-08-20T09:26:45.455Z,25.93
2018-08-20T09:30:53.767Z,27.30
2018-08-20T09:35:02.079Z,26.33
2018-08-20T09:39:10.383Z,27.63
2018-08-20T09:43:18.751Z,28.20
2018-08-20T09:47:27.134Z,27.77
2018-08-20T09:51:35.482Z,22.77
2018-08-20T09:55:43.526Z,22.70
2018-08-20T09:59:51.881Z,23.40
2018-08-20T10:04:00.223Z,23.60
2018-08-20T10:08:08.707Z,24.97
2018-08-20T10:12:17.081Z,22.10
2018-08-20T10:16:25.402Z,21.73
2018-08-20T10:20:33.767Z,20.43
2018-08-20T10:24:42.169Z,23.10
2018-08-20T10:28:50.422Z,24.70
2018-08-20T10:32:58.802Z,21.20
2018-08-20T10:37:07.144Z,24.40
2018-08-20T10:41:15.515Z,22.03
2018-08-20T10:45:29.148Z,19.93
2018-08-20T10:49:37.502Z,22.47
2018-08-20T10:53:45.850Z,22.50
2018-08-20T10:57:54.189Z,21.10
2018-08-20T11:02:02.508Z,21.47
2018-08-20T11:06:11.082Z,22.80
2018-08-20T11:10:19.418Z,22.03
2018-08-20T11:14:27.753Z,22.70
2018-08-20T11:18:36.109Z,20.90
2018-08-20T11:22:44.506Z,20.70
2018-08-20T11:26:52.876Z,21.80
2018-08-20T11:31:01.255Z,24.70
2018-08-20T11:35:10.382Z,22.53
2018-08-20T11:39:18.695Z,24.97
2018-08-20T11:43:27.046Z,21.00
2018-08-20T11:47:35.389Z,22.83
2018-08-20T11:51:43.741Z,20.80
2018-08-20T11:55:52.050Z,22.50
2018-08-20T12:00:00.438Z,20.20
2018-08-20T12:04:08.775Z,22.03
2018-08-20T12:08:17.159Z,19.13
2018-08-20T12:12:25.477Z,17.70
2018-08-20T12:16:33.850Z,10.50
2018-08-20T12:20:42.202Z,8.13
2018-08-20T12:24:50.569Z,7.30
2018-08-20T12:28:58.923Z,6.67
2018-08-20T12:33:07.424Z,6.50
2018-08-20T12:37:15.750Z,6.87
2018-08-20T12:41:24.085Z,7.13
2018-08-20T12:45:32.394Z,9.30
2018-08-20T12:49:40.845Z,8.83
2018-08-20T12:53:49.200Z,9.23
2018-08-20T12:57:57.575Z,10.50
2018-08-20T13:02:06.239Z,9.83
2018-08-20T13:06:14.564Z,12.87
2018-08-20T13:10:22.883Z,10.50
2018-08-20T13:14:31.243Z,11.13
2018-08-20T13:18:39.664Z,13.70
2018-08-20T13:22:48.043Z,12.47
2018-08-20T13:26:56.426Z,13.33
2018-08-20T13:31:04.857Z,12.43
2018-08-20T13:35:13.250Z,13.68
2018-08-20T13:39:21.540Z,13.57
2018-08-20T13:43:29.733Z,13.50
2018-08-20T13:47:38.106Z,10.50
2018-08-20T13:51:46.390Z,6.33
2018-08-20T13:55:54.738Z,7.30
2018-08-20T14:00:03.105Z,6.53
2018-08-20T14:04:11.488Z,5.50
2018-08-20T14:08:19.827Z,6.17
2018-08-20T14:12:27.913Z,5.00
2018-08-20T14:16:36.262Z,4.77
2018-08-20T14:21:21.679Z,3.33
2018-08-20T14:25:30.017Z,3.27
2018-08-20T14:29:38.349Z,3.33
2018-08-20T14:33:46.694Z,3.50
2018-08-20T14:37:55.018Z,3.50
2018-08-20T14:42:03.399Z,3.57
2018-08-20T14:46:17.192Z,4.00
2018-08-20T14:50:25.557Z,3.73
2018-08-20T14:54:33.967Z,4.27
2018-08-20T14:58:42.266Z,4.00
2018-08-20T15:02:50.571Z,3.90
2018-08-20T15:07:02.060Z,3.93
2018-08-20T15:11:10.418Z,3.20
2018-08-20T15:15:18.833Z,4.37
2018-08-20T15:19:27.138Z,3.37
2018-08-20T15:23:35.589Z,2.83
2018-08-20T15:27:43.933Z,3.10
2018-08-20T15:31:52.285Z,2.97
2018-08-20T15:36:00.654Z,3.20
2018-08-20T15:40:08.995Z,3.70
2018-08-20T15:44:17.435Z,3.70
2018-08-20T15:48:25.753Z,3.90
2018-08-20T15:52:34.151Z,3.67
2018-08-20T15:56:42.574Z,3.90
2018-08-20T16:00:50.935Z,3.80
2018-08-20T16:04:59.256Z,3.53
2018-08-20T16:09:08.133Z,3.50
2018-08-20T16:13:16.527Z,4.57
2018-08-20T16:17:24.608Z,4.30
2018-08-20T16:21:33.010Z,4.80
2018-08-20T16:25:41.383Z,3.90
2018-08-20T16:29:49.698Z,5.07
2018-08-20T16:33:58.018Z,4.10
2018-08-20T16:38:06.400Z,3.30
2018-08-20T16:42:14.818Z,3.33
2018-08-20T16:46:23.161Z,2.83
2018-08-20T16:50:31.575Z,2.33
2018-08-20T16:54:39.921Z,2.20
2018-08-20T16:58:48.241Z,2.17
2018-08-20T17:02:56.546Z,2.00
2018-08-20T17:07:04.931Z,2.27
2018-08-20T17:11:14.220Z,2.50
2018-08-20T17:15:22.621Z,2.03
2018-08-20T17:19:30.946Z,2.63
2018-08-20T17:23:39.234Z,2.87
2018-08-20T17:27:51.782Z,2.43
2018-08-20T17:32:01.615Z,2.60
2018-08-20T17:36:09.982Z,2.40
2018-08-20T17:40:18.281Z,2.23
2018-08-20T17:44:26.602Z,2.60
2018-08-20T17:48:34.966Z,2.50
2018-08-20T17:52:43.318Z,2.57
2018-08-20T17:56:51.618Z,3.07
2018-08-20T18:00:59.972Z,2.90
2018-08-20T18:05:08.290Z,3.17
2018-08-20T18:09:16.616Z,2.80
2018-08-20T18:13:47.348Z,2.50
2018-08-20T18:17:55.640Z,2.87
2018-08-20T18:22:04.618Z,2.10
2018-08-20T18:26:12.995Z,2.73
2018-08-20T18:30:21.396Z,2.73
2018-08-20T18:34:29.698Z,2.73
2018-08-20T18:38:42.964Z,2.83
2018-08-20T18:42:51.326Z,2.60
2018-08-20T18:46:59.631Z,3.37
2018-08-20T18:51:09.825Z,2.80
2018-08-20T18:55:18.202Z,3.43
2018-08-20T18:59:26.513Z,3.67
2018-08-20T19:03:39.081Z,2.93
2018-08-20T19:07:47.644Z,3.47
2018-08-20T19:11:56.039Z,4.20
2018-08-20T19:16:14.510Z,3.30
2018-08-20T19:20:22.886Z,3.97
2018-08-20T19:24:35.612Z,3.70
2018-08-20T19:28:43.932Z,3.60
2018-08-20T19:32:52.273Z,3.80
2018-08-20T19:37:01.434Z,3.50
2018-08-20T19:41:12.476Z,4.67
2018-08-20T19:45:23.501Z,3.97
2018-08-20T19:49:31.911Z,3.40
2018-08-20T19:53:40.246Z,3.93
2018-08-20T19:57:48.694Z,3.77
2018-08-20T20:01:57.050Z,4.00
2018-08-20T20:06:05.402Z,4.20
2018-08-20T20:10:14.092Z,3.67
2018-08-20T20:14:22.457Z,8.07
2018-08-20T20:18:30.830Z,7.97
2018-08-20T20:22:39.264Z,9.30
2018-08-20T20:26:47.688Z,10.90
2018-08-20T20:30:56.050Z,9.70
2018-08-20T20:35:04.939Z,6.70
2018-08-20T20:39:13.343Z,6.27
2018-08-20T20:43:25.491Z,6.80
2018-08-20T20:47:33.882Z,6.50
2018-08-20T20:51:42.275Z,4.53
2018-08-20T20:55:50.583Z,4.80
2018-08-20T20:59:59.011Z,4.30
2018-08-20T21:04:08.317Z,4.10
2018-08-20T21:08:16.703Z,4.13
2018-08-20T21:12:25.035Z,5.10
2018-08-20T21:16:33.416Z,5.00
2018-08-20T21:20:41.759Z,4.30
2018-08-20T21:24:50.181Z,5.53
2018-08-20T21:28:58.574Z,5.40
2018-08-20T21:33:07.052Z,5.30
2018-08-20T21:37:15.428Z,5.30
2018-08-20T21:41:25.020Z,5.00
2018-08-20T21:45:33.550Z,5.40
2018-08-20T21:49:41.881Z,4.90
2018-08-20T21:53:50.210Z,4.83
2018-08-20T21:57:58.774Z,4.10
2018-08-20T22:02:07.159Z,4.47
2018-08-20T22:06:15.619Z,4.20
2018-08-20T22:10:24.615Z,4.60
2018-08-20T22:14:33.096Z,4.10
2018-08-20T22:18:42.554Z,4.53
2018-08-20T22:22:52.003Z,3.57
2018-08-20T22:27:00.315Z,4.43
2018-08-20T22:31:08.613Z,3.80
2018-08-20T22:35:22.362Z,4.00
2018-08-20T22:39:30.761Z,3.97
2018-08-20T22:43:39.085Z,4.40
2018-08-20T22:47:48.346Z,4.20
2018-08-20T22:51:56.694Z,4.70
2018-08-20T22:56:12.317Z,4.50
2018-08-20T23:00:24.694Z,3.73
2018-08-20T23:04:33.076Z,3.67
2018-08-20T23:08:41.422Z,4.30
2018-08-20T23:12:50.487Z,3.80
2018-08-20T23:16:58.838Z,3.97
2018-08-20T23:21:07.130Z,3.80
2018-08-20T23:25:15.464Z,3.90
2018-08-20T23:29:23.851Z,3.80
2018-08-20T23:33:33.038Z,3.77
2018-08-20T23:37:41.405Z,3.90
2018-08-20T23:41:49.751Z,3.83
2018-08-20T23:45:58.133Z,3.87
2018-08-20T23:50:06.998Z,3.63
2018-08-20T23:54:15.345Z,3.73
2018-08-20T23:58:23.743Z,3.80
